createdAt,value
2019-04-28T00:00:53.879Z,8.20
2019-04-28T00:03:23.243Z,8.20
2019-04-28T00:05:52.659Z,8.20
2019-04-28T00:08:22.270Z,8.20
2019-04-28T00:10:53.273Z,8.20
2019-04-28T00:13:22.551Z,8.20
2019-04-28T00:15:54.143Z,8.20
2019-04-28T00:18:24.498Z,8.20
2019-04-28T00:21:12.058Z,8.20
2019-04-28T00:24:04.371Z,8.20
2019-04-28T00:27:11.512Z,8.10
2019-04-28T00:29:43.622Z,8.10
2019-04-28T00:32:11.224Z,8.00
2019-04-28T00:34:42.883Z,8.00
2019-04-28T00:37:26.244Z,8.00
2019-04-28T00:39:55.779Z,8.00
2019-04-28T00:42:26.915Z,8.00
2019-04-28T00:44:56.879Z,8.00
2019-04-28T00:47:27.163Z,8.00
2019-04-28T00:50:11.647Z,8.00
2019-04-28T00:52:36.075Z,8.00
2019-04-28T00:55:13.432Z,8.00
2019-04-28T00:57:42.778Z,8.00
2019-04-28T01:00:12.820Z,8.10
2019-04-28T01:02:42.918Z,8.00
2019-04-28T01:05:12.497Z,8.00
2019-04-28T01:07:42.678Z,7.90
2019-04-28T01:10:12.589Z,7.90
2019-04-28T01:12:42.291Z,7.80
2019-04-28T01:15:20.213Z,7.90
2019-04-28T01:18:05.104Z,7.90
2019-04-28T01:20:34.405Z,7.90
2019-04-28T01:23:10.355Z,7.90
2019-04-28T01:25:40.185Z,7.90
2019-04-28T01:28:09.883Z,7.80
2019-04-28T01:31:13.686Z,7.80
2019-04-28T01:34:02.308Z,7.80
2019-04-28T01:36:32.894Z,7.80
2019-04-28T01:39:02.317Z,7.80
2019-04-28T01:41:31.778Z,7.70
2019-04-28T01:44:01.279Z,7.70
2019-04-28T01:46:30.653Z,7.60
2019-04-28T01:49:00.193Z,7.60
2019-04-28T01:51:30.482Z,7.60
2019-04-28T01:54:00.254Z,7.60
2019-04-28T01:56:30.423Z,7.60
2019-04-28T01:59:00.369Z,7.50
2019-04-28T02:01:30.148Z,7.50
2019-04-28T02:04:00.215Z,7.40
2019-04-28T02:06:30.126Z,7.40
2019-04-28T02:09:00.860Z,7.30
2019-04-28T02:11:30.558Z,7.30
2019-04-28T02:13:59.891Z,7.30
2019-04-28T02:16:29.730Z,7.20
2019-04-28T02:18:59.854Z,7.20
2019-04-28T02:21:57.317Z,7.20
2019-04-28T02:24:34.678Z,7.20
2019-04-28T02:27:04.327Z,7.20
2019-04-28T02:29:33.989Z,7.20
2019-04-28T02:32:03.649Z,7.20
2019-04-28T02:34:32.876Z,7.30
2019-04-28T02:37:03.122Z,7.20
2019-04-28T02:39:32.963Z,7.20
2019-04-28T02:42:02.532Z,7.20
2019-04-28T02:44:34.984Z,7.20
2019-04-28T02:47:02.864Z,7.20
2019-04-28T02:50:00.605Z,7.20
2019-04-28T02:52:46.426Z,7.20
2019-04-28T02:55:16.038Z,7.20
2019-04-28T02:57:45.351Z,7.10
2019-04-28T03:00:14.674Z,7.20
2019-04-28T03:02:43.989Z,7.20
2019-04-28T03:05:13.596Z,7.10
2019-04-28T03:07:43.238Z,7.10
2019-04-28T03:10:12.652Z,7.10
2019-04-28T03:12:41.931Z,7.10
2019-04-28T03:15:11.390Z,7.00
2019-04-28T03:17:41.030Z,7.00
2019-04-28T03:20:11.085Z,6.90
2019-04-28T03:22:41.111Z,6.90
2019-04-28T03:25:15.929Z,6.80
2019-04-28T03:28:02.720Z,6.80
2019-04-28T03:30:53.979Z,6.80
2019-04-28T03:33:25.613Z,6.80
2019-04-28T03:35:53.903Z,6.80
2019-04-28T03:38:23.535Z,6.80
2019-04-28T03:40:52.799Z,6.70
2019-04-28T03:43:22.012Z,6.70
2019-04-28T03:45:56.590Z,6.70
2019-04-28T03:48:25.844Z,6.70
2019-04-28T03:51:00.502Z,6.70
2019-04-28T03:53:31.228Z,6.70
2019-04-28T03:56:01.513Z,6.60
2019-04-28T03:58:31.418Z,6.60
2019-04-28T04:01:03.189Z,6.60
2019-04-28T04:03:31.719Z,6.60
2019-04-28T04:06:01.385Z,6.50
2019-04-28T04:08:31.179Z,6.60
2019-04-28T04:11:23.024Z,6.60
2019-04-28T04:14:14.388Z,6.50
2019-04-28T04:16:52.289Z,6.50
2019-04-28T04:19:21.655Z,6.50
2019-04-28T04:21:52.705Z,6.50
2019-04-28T04:24:21.896Z,6.50
2019-04-28T04:26:51.223Z,6.50
2019-04-28T04:29:21.661Z,6.50
2019-04-28T04:31:51.343Z,6.50
2019-04-28T04:34:21.050Z,6.50
2019-04-28T04:36:51.004Z,6.50
2019-04-28T04:39:20.764Z,6.50
2019-04-28T04:41:50.481Z,6.50
2019-04-28T04:44:21.157Z,6.40
2019-04-28T04:46:50.954Z,6.50
2019-04-28T04:49:21.478Z,6.50
2019-04-28T04:51:51.152Z,6.50
2019-04-28T04:54:20.563Z,6.50
2019-04-28T04:56:50.181Z,6.50
2019-04-28T04:59:20.219Z,6.50
2019-04-28T05:02:26.698Z,6.50
2019-04-28T05:05:13.983Z,6.50
2019-04-28T05:07:43.222Z,6.50
2019-04-28T05:10:13.013Z,6.50
2019-04-28T05:12:42.209Z,6.60
2019-04-28T05:15:11.827Z,6.70
2019-04-28T05:17:41.135Z,6.80
2019-04-28T05:20:10.443Z,6.80
2019-04-28T05:22:46.217Z,6.90
2019-04-28T05:25:24.592Z,7.10
2019-04-28T05:27:54.602Z,7.20
2019-04-28T05:30:23.365Z,7.30
2019-04-28T05:32:56.220Z,7.40
2019-04-28T05:35:25.248Z,7.50
2019-04-28T05:37:54.703Z,7.60
2019-04-28T05:40:23.984Z,7.60
2019-04-28T05:43:00.924Z,7.70
2019-04-28T05:45:32.108Z,7.80
2019-04-28T05:48:01.710Z,7.80
2019-04-28T05:50:40.070Z,7.90
2019-04-28T05:53:14.939Z,7.90
2019-04-28T05:56:01.925Z,7.90
2019-04-28T05:58:50.506Z,7.80
2019-04-28T06:01:24.214Z,7.90
2019-04-28T06:03:53.392Z,7.90
2019-04-28T06:06:25.009Z,7.90
2019-04-28T06:09:14.966Z,8.10
2019-04-28T06:11:44.497Z,8.20
2019-04-28T06:14:13.740Z,8.40
2019-04-28T06:16:42.958Z,8.50
2019-04-28T06:19:12.623Z,8.40
2019-04-28T06:21:41.812Z,8.20
2019-04-28T06:24:11.855Z,8.30
2019-04-28T06:26:41.096Z,8.40
2019-04-28T06:29:10.295Z,8.40
2019-04-28T06:31:39.910Z,8.40
2019-04-28T06:34:09.148Z,8.30
2019-04-28T06:36:38.464Z,8.20
2019-04-28T06:39:09.046Z,8.30
2019-04-28T06:41:38.345Z,8.40
2019-04-28T06:44:07.684Z,8.40
2019-04-28T06:46:36.961Z,8.60
2019-04-28T06:49:06.528Z,8.70
2019-04-28T06:51:35.794Z,8.70
2019-04-28T06:54:05.648Z,8.40
2019-04-28T06:56:35.207Z,8.30
2019-04-28T06:59:04.723Z,8.40
2019-04-28T07:01:34.115Z,8.70
2019-04-28T07:04:03.669Z,8.90
2019-04-28T07:06:32.828Z,9.10
2019-04-28T07:09:02.101Z,9.10
2019-04-28T07:11:31.277Z,8.90
2019-04-28T07:14:01.201Z,8.70
2019-04-28T07:16:30.758Z,8.70
2019-04-28T07:19:00.033Z,8.70
2019-04-28T07:21:37.569Z,8.80
2019-04-28T07:24:06.805Z,8.80
2019-04-28T07:26:36.130Z,8.80
2019-04-28T07:29:05.375Z,8.90
2019-04-28T07:31:34.652Z,9.10
2019-04-28T07:34:04.252Z,9.40
2019-04-28T07:36:33.532Z,9.60
2019-04-28T07:39:02.841Z,9.80
2019-04-28T07:41:32.160Z,9.90
2019-04-28T07:44:01.691Z,10.20
2019-04-28T07:46:30.865Z,10.50
2019-04-28T07:49:00.472Z,10.70
2019-04-28T07:51:40.077Z,11.10
2019-04-28T07:54:11.710Z,11.40
2019-04-28T07:56:41.299Z,11.40
2019-04-28T07:59:10.962Z,11.30
2019-04-28T08:01:40.589Z,11.10
2019-04-28T08:04:09.858Z,10.80
2019-04-28T08:06:39.167Z,10.60
2019-04-28T08:09:10.497Z,10.80
2019-04-28T08:11:40.117Z,10.90
2019-04-28T08:14:09.470Z,10.90
2019-04-28T08:16:39.306Z,11.00
2019-04-28T08:19:08.699Z,11.10
2019-04-28T08:21:37.995Z,11.20
2019-04-28T08:24:07.576Z,11.10
2019-04-28T08:26:36.890Z,11.00
2019-04-28T08:29:06.208Z,11.00
2019-04-28T08:32:03.703Z,11.00
2019-04-28T08:34:33.083Z,11.00
2019-04-28T08:37:02.676Z,11.10
2019-04-28T08:39:32.273Z,11.00
2019-04-28T08:42:04.514Z,11.00
2019-04-28T08:44:47.591Z,11.20
2019-04-28T08:47:16.856Z,11.50
2019-04-28T08:49:46.082Z,11.70
2019-04-28T08:52:16.375Z,11.80
2019-04-28T08:54:46.309Z,11.80
2019-04-28T08:57:27.981Z,11.90
2019-04-28T09:00:09.645Z,12.00
2019-04-28T09:02:39.297Z,12.00
2019-04-28T09:05:22.306Z,12.00
2019-04-28T09:08:00.516Z,12.10
2019-04-28T09:10:30.054Z,12.00
2019-04-28T09:12:59.327Z,12.10
2019-04-28T09:15:28.695Z,12.10
2019-04-28T09:18:00.747Z,12.20
2019-04-28T09:20:30.036Z,12.40
2019-04-28T09:22:59.272Z,12.40
2019-04-28T09:25:28.822Z,12.50
2019-04-28T09:27:58.058Z,12.70
2019-04-28T09:30:27.671Z,12.80
2019-04-28T09:32:57.298Z,12.90
2019-04-28T09:35:34.016Z,12.90
2019-04-28T09:38:03.729Z,13.20
2019-04-28T09:40:35.045Z,13.60
2019-04-28T09:43:43.665Z,13.80
2019-04-28T09:46:21.774Z,13.80
2019-04-28T09:48:51.322Z,13.60
2019-04-28T09:51:20.675Z,13.60
2019-04-28T09:54:26.097Z,13.40
2019-04-28T09:57:22.039Z,13.00
2019-04-28T09:59:54.642Z,12.60
2019-04-28T10:02:27.095Z,12.40
2019-04-28T10:05:01.063Z,12.10
2019-04-28T10:07:33.743Z,12.30
2019-04-28T10:10:07.119Z,12.50
2019-04-28T10:12:40.505Z,12.90
2019-04-28T10:28:22.124Z,14.50
2019-04-28T10:35:20.748Z,14.90
2019-04-28T10:37:59.493Z,14.90
2019-04-28T10:40:44.722Z,14.90
2019-04-28T10:43:20.182Z,14.80
2019-04-28T10:46:38.807Z,14.80
2019-04-28T10:50:14.430Z,15.00
2019-04-28T10:57:15.901Z,14.70
2019-04-28T10:59:45.576Z,14.80
2019-04-28T11:03:07.559Z,15.00
2019-04-28T11:05:53.764Z,15.30
2019-04-28T11:08:55.712Z,15.90
2019-04-28T11:11:28.192Z,16.40
2019-04-28T11:14:20.884Z,16.80
2019-04-28T11:16:58.000Z,17.10
2019-04-28T11:19:36.211Z,17.40
2019-04-28T11:22:05.625Z,17.60
2019-04-28T11:24:51.965Z,17.90
2019-04-28T11:27:23.826Z,18.30
2019-04-28T11:29:53.333Z,18.60
2019-04-28T11:32:22.603Z,18.90
2019-04-28T11:35:20.605Z,19.10
2019-04-28T11:38:01.729Z,18.70
2019-04-28T11:40:33.031Z,18.10
2019-04-28T11:43:17.187Z,17.80
2019-04-28T11:45:46.829Z,18.10
2019-04-28T11:48:16.345Z,18.30
2019-04-28T11:50:45.591Z,18.80
2019-04-28T11:53:21.002Z,19.80
2019-04-28T11:55:51.274Z,21.50
2019-04-28T11:58:21.955Z,20.70
2019-04-28T12:00:54.435Z,19.00
2019-04-28T12:03:27.962Z,18.90
2019-04-28T12:06:06.693Z,20.90
2019-04-28T12:08:37.276Z,21.60
2019-04-28T12:11:21.262Z,21.40
2019-04-28T12:14:09.589Z,19.60
2019-04-28T12:17:05.775Z,18.00
2019-04-28T12:19:42.234Z,17.00
2019-04-28T12:22:17.755Z,16.20
2019-04-28T12:24:47.975Z,15.80
2019-04-28T12:27:24.290Z,15.60
2019-04-28T12:29:57.255Z,15.50
2019-04-28T12:32:28.707Z,15.60
2019-04-28T12:34:58.156Z,15.70
2019-04-28T12:37:27.710Z,15.80
2019-04-28T12:39:58.411Z,16.00
2019-04-28T12:42:33.319Z,16.30
2019-04-28T12:45:06.012Z,16.50
2019-04-28T12:47:39.193Z,16.80
2019-04-28T12:50:31.195Z,17.40
2019-04-28T12:53:06.393Z,19.20
2019-04-28T12:55:39.319Z,23.30
2019-04-28T12:58:13.459Z,23.70
2019-04-28T13:01:10.532Z,23.00
2019-04-28T13:03:48.266Z,22.50
2019-04-28T13:06:18.637Z,22.50
2019-04-28T13:08:49.067Z,23.00
2019-04-28T13:11:26.668Z,22.20
2019-04-28T13:13:59.148Z,22.00
2019-04-28T13:16:44.030Z,21.50
2019-04-28T13:19:15.929Z,21.40
2019-04-28T13:21:46.369Z,21.10
2019-04-28T13:24:17.836Z,21.40
2019-04-28T13:26:48.811Z,21.40
2019-04-28T13:29:20.729Z,22.60
2019-04-28T13:31:56.541Z,23.20
2019-04-28T13:34:27.744Z,22.90
2019-04-28T13:36:57.089Z,22.40
2019-04-28T13:39:40.185Z,23.70
2019-04-28T13:43:01.850Z,23.40
2019-04-28T13:45:51.631Z,22.20
2019-04-28T13:48:26.105Z,21.00
2019-04-28T13:50:55.687Z,20.10
2019-04-28T13:53:25.287Z,19.60
2019-04-28T13:56:50.257Z,19.30
2019-04-28T14:04:17.138Z,20.60
2019-04-28T14:14:52.355Z,21.80
2019-04-28T14:19:08.203Z,23.20
2019-04-28T14:22:46.528Z,23.10
2019-04-28T14:32:34.589Z,20.50
2019-04-28T14:35:04.146Z,20.30
2019-04-28T14:37:36.543Z,20.50
2019-04-28T14:40:10.691Z,20.50
2019-04-28T14:42:42.291Z,20.60
2019-04-28T14:45:11.838Z,21.30
2019-04-28T14:47:46.930Z,21.60
2019-04-28T14:50:16.170Z,22.60
2019-04-28T14:52:45.589Z,24.60
2019-04-28T14:55:15.037Z,25.40
2019-04-28T14:57:45.737Z,25.70
2019-04-28T15:00:25.650Z,25.50
2019-04-28T15:03:02.353Z,25.60
2019-04-28T15:05:43.518Z,25.60
2019-04-28T15:08:26.108Z,26.80
2019-04-28T15:11:25.885Z,27.90
2019-04-28T15:13:57.368Z,27.50
2019-04-28T15:16:30.847Z,26.40
2019-04-28T15:19:01.273Z,25.10
2019-04-28T15:21:30.624Z,25.00
2019-04-28T15:24:00.271Z,24.30
2019-04-28T15:26:29.552Z,23.40
2019-04-28T15:29:15.483Z,22.70
2019-04-28T15:31:48.273Z,22.90
2019-04-28T15:34:17.625Z,23.80
2019-04-28T15:36:50.576Z,24.30
2019-04-28T15:39:19.815Z,24.50
2019-04-28T15:41:54.787Z,24.20
2019-04-28T15:44:24.055Z,23.90
2019-04-28T15:46:54.650Z,22.80
2019-04-28T15:49:23.884Z,22.10
2019-04-28T15:51:53.128Z,21.70
2019-04-28T15:54:25.604Z,21.50
2019-04-28T15:56:54.743Z,21.40
2019-04-28T15:59:25.502Z,21.00
2019-04-28T16:01:54.689Z,20.70
2019-04-28T16:04:23.992Z,20.80
2019-04-28T16:06:53.659Z,21.10
2019-04-28T16:09:22.955Z,21.50
2019-04-28T16:11:52.364Z,21.50
2019-04-28T16:14:21.895Z,21.30
2019-04-28T16:16:51.899Z,21.30
2019-04-28T16:19:21.116Z,21.90
2019-04-28T16:21:50.759Z,22.50
2019-04-28T16:24:24.900Z,23.30
2019-04-28T16:26:54.247Z,24.00
2019-04-28T16:29:23.771Z,23.60
2019-04-28T16:31:57.683Z,22.90
2019-04-28T16:34:26.804Z,22.50
2019-04-28T16:36:56.468Z,23.20
2019-04-28T16:39:25.741Z,23.80
2019-04-28T16:42:02.541Z,24.70
2019-04-28T16:44:33.354Z,25.20
2019-04-28T16:47:02.658Z,25.20
2019-04-28T16:49:43.663Z,24.60
2019-04-28T16:52:12.883Z,24.50
2019-04-28T16:54:55.103Z,24.70
2019-04-28T16:57:32.785Z,25.40
2019-04-28T17:00:16.007Z,25.90
2019-04-28T17:02:47.919Z,26.20
2019-04-28T17:05:18.903Z,25.90
2019-04-28T17:07:56.459Z,25.90
2019-04-28T17:10:48.223Z,25.90
2019-04-28T17:13:17.367Z,25.60
2019-04-28T17:15:56.867Z,25.00
2019-04-28T17:18:34.297Z,24.80
2019-04-28T17:21:03.521Z,23.40
2019-04-28T17:23:35.186Z,21.90
2019-04-28T17:26:05.467Z,21.00
2019-04-28T17:28:40.782Z,20.00
2019-04-28T17:31:13.182Z,19.10
2019-04-28T17:33:58.854Z,18.40
2019-04-28T17:36:28.230Z,17.60
2019-04-28T17:38:57.616Z,16.90
2019-04-28T17:41:31.990Z,16.30
2019-04-28T17:44:04.659Z,15.90
2019-04-28T17:46:36.568Z,15.50
2019-04-28T17:49:10.300Z,15.10
2019-04-28T17:51:43.013Z,14.80
2019-04-28T17:54:16.353Z,14.50
2019-04-28T17:56:49.461Z,14.30
2019-04-28T17:59:24.704Z,14.10
2019-04-28T18:02:34.685Z,14.00
2019-04-28T18:05:44.014Z,13.90
2019-04-28T18:08:21.168Z,13.90
2019-04-28T18:10:56.102Z,13.80
2019-04-28T18:13:38.653Z,13.60
2019-04-28T18:16:28.293Z,13.50
2019-04-28T18:19:06.067Z,13.30
2019-04-28T18:21:44.459Z,13.10
2019-04-28T18:24:20.089Z,13.00
2019-04-28T18:26:52.313Z,12.90
2019-04-28T18:29:27.442Z,12.80
2019-04-28T18:32:32.263Z,12.60
2019-04-28T18:35:14.503Z,12.40
2019-04-28T18:38:05.066Z,12.30
2019-04-28T18:41:03.922Z,12.10
2019-04-28T18:43:54.540Z,12.00
2019-04-28T18:46:31.661Z,11.80
2019-04-28T18:49:11.397Z,11.70
2019-04-28T18:52:00.047Z,11.50
2019-04-28T18:54:34.751Z,11.30
2019-04-28T18:57:07.996Z,11.20
2019-04-28T18:59:38.731Z,11.10
2019-04-28T19:02:20.272Z,11.00
2019-04-28T19:04:49.531Z,11.00
2019-04-28T19:07:24.964Z,11.00
2019-04-28T19:10:16.220Z,11.10
2019-04-28T19:12:53.573Z,11.10
2019-04-28T19:15:36.484Z,11.00
2019-04-28T19:18:10.433Z,11.00
2019-04-28T19:20:40.711Z,11.00
2019-04-28T19:23:24.628Z,10.90
2019-04-28T19:25:53.951Z,10.80
2019-04-28T19:28:23.174Z,10.70
2019-04-28T19:30:52.413Z,10.70
2019-04-28T19:33:22.061Z,10.60
2019-04-28T19:35:51.736Z,10.60
2019-04-28T19:38:21.361Z,10.60
2019-04-28T19:40:50.661Z,10.50
2019-04-28T19:43:19.988Z,10.50
2019-04-28T19:45:50.880Z,10.40
2019-04-28T19:48:20.096Z,10.30
2019-04-28T19:50:52.469Z,10.20
2019-04-28T19:53:21.860Z,10.20
2019-04-28T19:55:58.284Z,10.10
2019-04-28T19:58:37.877Z,10.00
2019-04-28T20:01:18.739Z,10.00
2019-04-28T20:03:48.004Z,9.90
2019-04-28T20:06:17.709Z,9.90
2019-04-28T20:08:47.283Z,9.90
2019-04-28T20:11:16.740Z,9.90
2019-04-28T20:13:46.877Z,9.90
2019-04-28T20:16:17.130Z,9.80
2019-04-28T20:19:00.021Z,9.80
2019-04-28T20:21:29.349Z,9.70
2019-04-28T20:23:59.181Z,9.60
2019-04-28T20:26:28.423Z,9.60
2019-04-28T20:28:58.882Z,9.50
2019-04-28T20:31:28.177Z,9.50
2019-04-28T20:33:57.567Z,9.40
2019-04-28T20:36:54.713Z,9.30
2019-04-28T20:39:30.069Z,9.20
2019-04-28T20:42:18.410Z,9.10
2019-04-28T20:44:48.264Z,9.00
2019-04-28T20:47:17.879Z,8.90
2019-04-28T20:49:50.594Z,8.90
2019-04-28T20:52:20.264Z,8.90
2019-04-28T20:54:49.645Z,8.90
2019-04-28T20:57:19.105Z,8.80
2019-04-28T20:59:51.798Z,8.80
2019-04-28T21:02:21.006Z,8.80
2019-04-28T21:04:51.287Z,8.80
2019-04-28T21:07:20.647Z,8.80
2019-04-28T21:09:50.064Z,8.70
2019-04-28T21:12:19.445Z,8.70
2019-04-28T21:14:48.812Z,8.60
2019-04-28T21:17:18.163Z,8.50
2019-04-28T21:19:47.518Z,8.40
2019-04-28T21:22:18.745Z,8.30
2019-04-28T21:24:48.132Z,8.30
2019-04-28T21:27:17.541Z,8.40
2019-04-28T21:29:47.332Z,8.40
2019-04-28T21:32:16.964Z,8.40
2019-04-28T21:34:47.381Z,8.40
2019-04-28T21:37:18.450Z,8.50
2019-04-28T21:39:50.705Z,8.50
2019-04-28T21:42:22.853Z,8.40
2019-04-28T21:45:25.180Z,8.40
2019-04-28T21:48:00.479Z,8.30
2019-04-28T21:50:31.531Z,8.20
2019-04-28T21:53:01.200Z,8.20
2019-04-28T21:55:30.522Z,8.20
2019-04-28T21:58:00.323Z,8.10
2019-04-28T22:00:35.008Z,8.10
2019-04-28T22:03:04.617Z,8.10
2019-04-28T22:05:34.213Z,8.20
2019-04-28T22:08:03.489Z,8.20
2019-04-28T22:10:32.913Z,8.20
2019-04-28T22:13:02.462Z,8.10
2019-04-28T22:15:36.126Z,8.10
2019-04-28T22:18:10.793Z,8.00
2019-04-28T22:20:44.091Z,8.10
2019-04-28T22:23:18.783Z,8.10
2019-04-28T22:25:49.033Z,8.20
2019-04-28T22:28:18.565Z,8.20
2019-04-28T22:30:47.945Z,8.30
2019-04-28T22:33:17.211Z,8.30
2019-04-28T22:35:46.690Z,8.20
2019-04-28T22:38:16.056Z,8.20
2019-04-28T22:40:45.619Z,8.00
2019-04-28T22:43:15.059Z,7.90
2019-04-28T22:45:48.028Z,7.80
2019-04-28T22:48:27.255Z,7.70
2019-04-28T22:50:59.835Z,7.60
2019-04-28T22:53:35.724Z,7.50
2019-04-28T22:56:13.553Z,7.40
2019-04-28T22:58:52.628Z,7.30
2019-04-28T23:01:28.936Z,7.20
2019-04-28T23:04:01.702Z,7.20
2019-04-28T23:06:31.050Z,7.10
2019-04-28T23:09:00.316Z,7.10
2019-04-28T23:11:29.896Z,7.20
2019-04-28T23:13:59.490Z,7.10
2019-04-28T23:16:37.543Z,7.10
2019-04-28T23:19:12.162Z,7.00
2019-04-28T23:22:12.610Z,7.00
2019-04-28T23:24:41.891Z,6.90
2019-04-28T23:27:11.096Z,6.90
2019-04-28T23:29:41.189Z,6.90
2019-04-28T23:32:10.857Z,6.80
2019-04-28T23:34:40.165Z,6.80
2019-04-28T23:37:09.476Z,6.70
2019-04-28T23:39:38.760Z,6.70
2019-04-28T23:42:38.779Z,6.70
2019-04-28T23:45:12.428Z,6.60
2019-04-28T23:47:44.004Z,6.50
2019-04-28T23:50:14.925Z,6.40
2019-04-28T23:52:56.344Z,6.30
2019-04-28T23:55:27.302Z,6.20
2019-04-28T23:57:59.807Z,6.10
